»·PEaware :: XOJ452 KBFL-KPHX

XOJ452 :: KBFL-KPHX

FLIGHT INFORMATION

Flight Status: Arrived
Operator:
XOJET
More flights by this operator :: More flights under this callsign
Pilot: Anonymous 5456 (5456)
Aircraft: BOMBARDIER BD-100 CHALLENGER 300
(CL30)
More flights by this aircraft type
Origin: KBFL Meadows
United States
Destination: KPHX Phoenix Sky Harbor Intl
United States
More flights between these airports :: More routes between these airports
Route: +MEADO3 PMD J6 HEC PRFUM WOTRO BRUSR1
File this flight plan on PilotEdge
Remarks:
Altitude:
(Current/Filed)
37,000ft
Speed:
(Current/Filed)
450kts
Departed: 31-Jul-17 08:23 AM
Arrived: 31-Jul-17 09:37 AM
Distance/Time
Traveled:
368nm/1:14
Distance/Time
To Go:
Arrived

Flight Plot

Page will automatically refresh every two minutes.

Flight plan parsing failed; only flown route is shown


Map Options




Map Legend


Flown Route
Filed Route
Departure Airport
Arrival Airport
Navaid (VOR, NDB)
Fix

Horizontal Profiles

Position Reports

Time Latitude Longitude Heading Altitude Ground
Speed
31-Jul-17 08:10 35.429417 -119.046058 226 513ft 0kts
31-Jul-17 08:11 35.429417 -119.046058 226 513ft 0kts
31-Jul-17 08:12 35.429417 -119.046058 226 513ft 0kts
31-Jul-17 08:13 35.429417 -119.046058 226 513ft 0kts
31-Jul-17 08:14 35.429417 -119.046058 226 513ft 0kts
31-Jul-17 08:15 35.429417 -119.046058 226 513ft 0kts
31-Jul-17 08:16 35.429417 -119.046058 226 513ft 0kts
31-Jul-17 08:17 35.429417 -119.046058 226 513ft 0kts
31-Jul-17 08:18 35.429417 -119.046058 226 513ft 0kts
31-Jul-17 08:19 35.429417 -119.046058 226 513ft 0kts
31-Jul-17 08:20 35.429417 -119.046058 226 513ft 0kts
31-Jul-17 08:21 35.429417 -119.046058 226 513ft 0kts
31-Jul-17 08:22 35.429417 -119.046058 226 513ft 0kts
31-Jul-17 08:23 35.429135 -119.046415 225 512ft 8kts
31-Jul-17 08:24 35.426696 -119.045332 134 513ft 15kts
31-Jul-17 08:25 35.425412 -119.045761 282 513ft 10kts
31-Jul-17 08:26 35.445909 -119.070186 315 1911ft 195kts
31-Jul-17 08:27 35.487096 -119.119641 313 5246ft 215kts
31-Jul-17 08:28 35.494539 -119.193682 213 8912ft 282kts
31-Jul-17 08:29 35.424344 -119.175670 140 12933ft 290kts
31-Jul-17 08:30 35.360771 -119.086694 129 14827ft 361kts
31-Jul-17 08:31 35.297936 -118.997399 130 19853ft 349kts
31-Jul-17 08:32 35.236694 -118.909957 133 24348ft 339kts
31-Jul-17 08:33 35.171955 -118.819085 130 26919ft 372kts
31-Jul-17 08:34 35.103682 -118.722657 130 29732ft 386kts
31-Jul-17 08:35 35.033581 -118.623821 132 32582ft 389kts
31-Jul-17 08:36 34.963234 -118.525051 132 35428ft 384kts
31-Jul-17 08:37 34.896979 -118.432842 130 37263ft 397kts
31-Jul-17 08:38 34.834799 -118.346113 131 37207ft 445kts
31-Jul-17 08:39 34.753699 -118.233274 131 37107ft 463kts
31-Jul-17 08:40 34.672143 -118.113454 121 37070ft 464kts
31-Jul-17 08:41 34.646040 -117.963258 86 37077ft 467kts
31-Jul-17 08:42 34.660155 -117.806545 84 37075ft 468kts
31-Jul-17 08:43 34.676372 -117.650294 83 37075ft 468kts
31-Jul-17 08:44 34.692764 -117.494756 83 37127ft 467kts
31-Jul-17 08:45 34.709035 -117.339251 84 37129ft 467kts
31-Jul-17 08:46 34.725150 -117.183437 84 37127ft 468kts
31-Jul-17 08:47 34.741149 -117.026774 84 37049ft 469kts
31-Jul-17 08:48 34.756966 -116.869828 84 37048ft 467kts
31-Jul-17 08:49 34.772451 -116.714155 84 37048ft 465kts
31-Jul-17 08:50 34.787723 -116.558568 84 37048ft 463kts
31-Jul-17 08:51 34.814451 -116.406390 72 37089ft 463kts
31-Jul-17 08:52 34.856389 -116.261126 72 37104ft 463kts
31-Jul-17 08:53 34.898646 -116.115848 72 37103ft 463kts
31-Jul-17 08:54 34.941346 -115.968628 72 37103ft 462kts
31-Jul-17 08:55 34.983915 -115.821159 72 37103ft 462kts
31-Jul-17 08:56 35.026190 -115.673950 72 37101ft 462kts
31-Jul-17 08:57 35.068254 -115.526711 72 37012ft 464kts
31-Jul-17 08:58 35.109835 -115.380398 72 36964ft 464kts
31-Jul-17 08:59 35.151529 -115.232919 72 36966ft 463kts
31-Jul-17 09:00 35.193222 -115.084652 72 36966ft 463kts
31-Jul-17 09:01 35.234758 -114.936147 72 36966ft 462kts
31-Jul-17 09:02 35.275691 -114.789003 72 36966ft 462kts
31-Jul-17 09:03 35.316848 -114.640257 72 36966ft 462kts
31-Jul-17 09:04 35.356466 -114.496304 72 36965ft 461kts
31-Jul-17 09:05 35.396704 -114.349316 73 37040ft 459kts
31-Jul-17 09:06 35.436773 -114.202108 73 37183ft 457kts
31-Jul-17 09:07 35.476533 -114.054835 74 37181ft 457kts
31-Jul-17 09:08 35.471441 -113.903770 112 37180ft 450kts
31-Jul-17 09:09 35.410979 -113.770683 122 37182ft 450kts
31-Jul-17 09:10 35.343577 -113.642273 123 37182ft 450kts
31-Jul-17 09:11 35.274757 -113.514959 123 37181ft 450kts
31-Jul-17 09:12 35.205432 -113.387854 123 37013ft 455kts
31-Jul-17 09:13 35.135125 -113.258944 125 35024ft 468kts
31-Jul-17 09:14 35.074448 -113.148272 125 33358ft 477kts
31-Jul-17 09:15 35.000942 -113.015304 124 31622ft 478kts
31-Jul-17 09:16 34.926178 -112.880623 123 29429ft 482kts
31-Jul-17 09:17 34.872565 -112.784346 123 27793ft 481kts
31-Jul-17 09:18 34.789992 -112.636504 123 25339ft 470kts
31-Jul-17 09:19 34.721194 -112.513629 123 25280ft 418kts
31-Jul-17 09:20 34.640696 -112.421413 140 25286ft 384kts
31-Jul-17 09:21 34.572930 -112.354613 140 25300ft 386kts
31-Jul-17 09:22 34.490828 -112.273744 142 25666ft 400kts
31-Jul-17 09:23 34.397562 -112.223302 166 25906ft 359kts
31-Jul-17 09:24 34.297921 -112.193305 168 23745ft 385kts
31-Jul-17 09:25 34.197403 -112.166225 168 21039ft 360kts
31-Jul-17 09:26 34.103599 -112.141834 167 18319ft 336kts
31-Jul-17 09:27 34.013159 -112.146409 183 15612ft 319kts
31-Jul-17 09:28 33.927558 -112.155230 184 12908ft 303kts
31-Jul-17 09:29 33.848884 -112.170033 188 10264ft 286kts
31-Jul-17 09:30 33.773446 -112.185824 188 7566ft 270kts
31-Jul-17 09:31 33.705766 -112.200038 188 7020ft 238kts
31-Jul-17 09:32 33.641420 -112.213555 188 6443ft 233kts
31-Jul-17 09:33 33.579342 -112.226659 188 6011ft 228kts
31-Jul-17 09:34 33.518209 -112.239836 188 5993ft 222kts
31-Jul-17 09:35 33.466185 -112.217294 152 5454ft 215kts
31-Jul-17 09:36 33.423028 -112.180067 90 4014ft 167kts
31-Jul-17 09:37 33.427624 -112.130560 85 3268ft 149kts
31-Jul-17 09:38 33.428971 -112.083449 88 2016ft 133kts
31-Jul-17 09:39 33.428956 -112.041058 88 1423ft 129kts
31-Jul-17 09:40 33.428843 -112.008498 90 1141ft 35kts
31-Jul-17 09:41 33.427732 -112.006786 265 1141ft 7kts
31-Jul-17 09:42 33.427752 -112.010806 269 1141ft 10kts
31-Jul-17 09:43 33.427741 -112.017006 270 1140ft 29kts
31-Jul-17 09:44 33.426045 -112.021267 242 1141ft 11kts
31-Jul-17 09:45 33.425360 -112.021654 89 1141ft 0kts

Navigation Log

Ident Type
Flight plan parsing failed, navigation log unavailable